Omega, Oklahoma
Current Conditions -  °F | °C
As of 10:55 PM on Wednesday 22 Oct 2014 (Local Time) from KJWG Reporting Station
Drizzle Drizzle  
Wind Chill: 16°   Ceiling: 6000
Heat Index: 16°   Visibility: 10mi
Dew Point: 14°   Wind: 6mph
Humidity: 90%   Direction: 180°S
Pressure: 30.13"   Gusts: NA
Location:  35.87°N, 98.2°W
Report Text: KJWG 230355Z AUTO 18005KT 10SM DZ OVC060 16/14 A3013 RMK AO2 T01580142
Loading
Personal Weather Stations






























Interactive Weather Map
Tropical Storm Tracking
New forecast layout! Learn more

10-Day Weather Forecast

Advertisements
Track Severe Weather on mobile